KDLS

Columbia Gorge Regional / The Dalles Municipal Airport

The Dalles, Oregon, USA
METAR KDLS 231153Z AUTO 00000KT 8SM CLR 05/03 A2995 RMK AO2 SLP143 T00500028 10083 20033 57003
Observed Flight Rules
Oct-23 @ 11:53 UTC (13 minutes ago) Visual Flight Rules
Visibility Clouds
8 miles
  • Clear skies
Temperatures Readings
Current 5°C / 41°F
Dewpoint 3°C / 37°F
Humidity 87%
Altimeter 29.95" Hg
Pressure 1014.3 hPa
Elevation 71
METAR KDLS 231153Z AUTO 00000KT 8SM CLR 05/03 A2995 RMK AO2 SLP143 T00500028 10083 20033 57003
Observed Flight Rules
Oct-23 @ 11:53 UTC
(13 minutes ago)
VFR
Clouds
  • Clear skies
Temperature Dewpoint
5°C / 41°F 3°C / 37°F
Humidity Altimeter Pressure
87% 29.95" Hg 1014.3 hPa